Pagina principală
METAR-TAF:

METAR-TAF

Aeroporturi :

Colonia del Sacramento, Uruguay

Latitudine: 34-27S, longitudine: 057-50W, elevație: 23 m

Observații meteo curente

Raportul a fost făcut în urmă cu 53 de minute, la 15:00 UTC
Vânt 6 kt de la Vest/Nord-vest, variabil între Vest și Nord
Temperatură 15°C
Umiditate 72%
Presiune 1024 hPa
Vizibilitate de 10 km sau mai mult
Nori puțini la o înălțime de 1500 picior

METAR: SUCA 171500Z 30006KT 270V350 9999 FEW015 15/10 Q1024

Ora: 12:53 (15:53 UTC)

Prognoză

Raportul a fost făcut în urmă cu 4 ore și 23 de minute, la 11:30 UTC
Prognoză valabilă de la 17 ora 12 UTC la 18 ora 12 UTC
Vânt 5 kt de la Vest
Vizibilitate: 0800 m
Total acoperit la o înălțime de 500 picior
ceață
Devenind
de la 17 ora 12 UTC la 17 ora 15 UTC
Vizibilitate de 10 km sau mai mult
Nori împrăștiați la o înălțime de 2000 picior

TAF: SUCA 171130Z 1712/1812 28005KT 0800 FG OVC005 TX16/1718Z TN09/1811Z BECMG 1712/1715 9999 SCT020

Observații și prognoze meteo pentru peste 4.000 de aeroporturi (rapoarte METAR și TAF).

Stațiile disponibile sunt reprezentate pe hartă prin puncte galbene și roșii.

Țineți indicatorul mouse-ului pe punctul dorit pentru a vedea denumirea stației.

Apoi, faceți clic pentru a vedea observațiile și prognozele meteorologice.

Pentru a schimba harta: Pentru mărire, faceți clic pe butoanele verzi cu cruce neagră; pentru micșorare, pe butonul verde cu o liniuță; pentru hărți învecinate, pe săgețile verzi.


METAR-TAF: